KIAG/IAG METAR and TAF weather

Enter ICAO airport designator
Station Type Date Time Source
KIAG METAR 2019/02/20 06:53 UTC NOAA

KIAG 200653Z AUTO 08004KT 8SM CLR M12/M14 A3052 RMK AO2 SLP358 T11221144


Station Type Date Time Source
KIAG Decoded METAR 2019/02/20 06:53 UTC NOAA

NIAGARA FALLS INTERNATIONAL AIRPORT, NY, United States (KIAG) 43-07N 078-56W 182M
Feb 20, 2019 - 01:53 AM EST / 2019.02.20 0653 UTC
Wind: from the E (080 degrees) at 5 MPH (4 KT):0
Visibility: 8 mile(s):0
Sky conditions: clear
Temperature: 10.0 F (-12.2 C)
Windchill: 1 F (-17 C):1
Dew Point: 6.1 F (-14.4 C)
Relative Humidity: 83%
Pressure (altimeter): 30.52 in. Hg (1033 hPa)
ob: KIAG 200653Z AUTO 08004KT 8SM CLR M12/M14 A3052 RMK AO2 SLP358 T11221144
cycle: 7

Station Type Date Time Source
KIAG TAF 2019/02/20 06:30 UTC NOAA

TAF KIAG 200526Z 2006/2106 VRB03KT P6SM BKN250
FM201800 12009KT P6SM OVC045
FM202100 14009KT P6SM VCSH OVC020
FM210200 16009KT 5SM -RA OVC020
FM210400 18010G20KT 4SM -RA OVC025 WS020/20040KT
FM210500 20012G23KT P6SM OVC020 WS020/21040KT


Example: see airport list